createdAt,value
2023-02-20T00:01:56.052Z,5.00
2023-02-20T00:07:01.087Z,15.00
2023-02-20T00:12:06.578Z,22.25
2023-02-20T00:17:11.609Z,25.50
2023-02-20T00:22:16.724Z,16.75
2023-02-20T00:27:21.845Z,13.00
2023-02-20T00:32:27.077Z,7.50
2023-02-20T00:37:32.242Z,4.50
2023-02-20T00:42:37.749Z,1.33
2023-02-20T00:47:43.660Z,2.00
2023-02-20T00:52:48.892Z,6.67
2023-02-20T00:57:57.608Z,9.00
2023-02-20T01:03:02.857Z,8.00
2023-02-20T01:08:08.134Z,11.50
2023-02-20T01:13:15.512Z,5.50
2023-02-20T01:18:21.555Z,2.00
2023-02-20T01:23:29.471Z,3.33
2023-02-20T01:28:35.041Z,3.50
2023-02-20T01:33:45.992Z,4.00
2023-02-20T01:38:52.493Z,4.00
2023-02-20T01:43:58.607Z,4.00
2023-02-20T01:49:15.818Z,2.50
2023-02-20T01:54:24.836Z,6.00
2023-02-20T01:59:34.642Z,9.50
2023-02-20T02:04:43.069Z,4.00
2023-02-20T02:10:09.715Z,0.00
2023-02-20T02:15:19.575Z,3.00
2023-02-20T02:21:00.782Z,6.00
2023-02-20T02:26:25.807Z,3.00
2023-02-20T02:31:59.667Z,0.00
2023-02-20T02:37:30.133Z,2.00
2023-02-20T02:43:14.621Z,0.00
2023-02-20T02:48:30.471Z,2.00
2023-02-20T02:53:35.676Z,2.00
2023-02-20T02:58:40.891Z,2.00
2023-02-20T03:03:50.016Z,2.00
2023-02-20T03:09:03.139Z,0.00
2023-02-20T03:14:33.175Z,3.50
2023-02-20T03:25:00.747Z,0.50
2023-02-20T03:30:16.149Z,1.00
2023-02-20T03:35:41.919Z,4.00
2023-02-20T03:41:05.784Z,0.50
2023-02-20T03:46:20.696Z,4.00
2023-02-20T03:51:26.388Z,0.00
2023-02-20T03:57:01.270Z,0.00
2023-02-20T04:02:13.508Z,0.00
2023-02-20T04:07:27.311Z,2.67
2023-02-20T04:12:38.427Z,0.00
2023-02-20T04:18:03.699Z,0.00
2023-02-20T04:23:31.479Z,0.00
2023-02-20T04:28:38.224Z,0.00
2023-02-20T04:33:45.960Z,1.33
2023-02-20T04:38:57.681Z,0.00
2023-02-20T04:44:24.918Z,0.00
2023-02-20T04:49:35.547Z,0.00
2023-02-20T04:54:43.552Z,0.00
2023-02-20T04:59:51.519Z,0.00
2023-02-20T05:04:56.902Z,0.00
2023-02-20T05:10:02.472Z,1.50
2023-02-20T05:15:07.694Z,7.50
2023-02-20T05:20:14.516Z,0.00
2023-02-20T05:25:20.680Z,0.50
2023-02-20T05:30:25.745Z,2.50
2023-02-20T05:35:31.092Z,0.00
2023-02-20T05:40:36.434Z,2.00
2023-02-20T05:45:41.364Z,3.50
2023-02-20T05:50:46.424Z,3.00
2023-02-20T05:56:02.006Z,2.00
2023-02-20T06:21:49.126Z,2.00
2023-02-20T06:26:56.204Z,0.00
2023-02-20T06:32:02.926Z,0.00
2023-02-20T07:33:01.254Z,1.00
2023-02-20T07:38:07.719Z,0.00
2023-02-20T07:43:13.791Z,1.50
2023-02-20T07:48:20.750Z,4.00
2023-02-20T07:53:26.013Z,0.00
2023-02-20T07:58:31.222Z,4.00
2023-02-20T08:03:37.411Z,5.33
2023-02-20T08:28:26.778Z,1.00
2023-02-20T08:33:32.623Z,2.00
2023-02-20T08:38:40.050Z,0.00
2023-02-20T08:43:46.196Z,0.00
2023-02-20T08:48:52.384Z,2.67
2023-02-20T08:53:59.330Z,0.67
2023-02-20T08:59:05.661Z,2.50
2023-02-20T09:04:11.770Z,0.00
2023-02-20T09:09:18.748Z,2.00
2023-02-20T09:14:24.150Z,4.00
2023-02-20T09:19:31.208Z,2.00
2023-02-20T09:24:38.492Z,4.00
2023-02-20T09:29:44.624Z,0.00
2023-02-20T09:34:49.874Z,0.00
2023-02-20T09:39:54.976Z,2.00
2023-02-20T09:45:15.979Z,0.00
2023-02-20T09:50:29.829Z,0.00
2023-02-20T09:55:42.454Z,4.67
2023-02-20T10:00:49.189Z,6.00
2023-02-20T10:05:58.247Z,5.33
2023-02-20T10:11:09.403Z,12.00
2023-02-20T10:16:30.624Z,10.00
2023-02-20T10:21:38.575Z,8.50
2023-02-20T10:26:50.487Z,0.50
2023-02-20T10:32:11.579Z,0.00
2023-02-20T10:37:29.573Z,0.00
2023-02-20T10:43:03.012Z,4.00
2023-02-20T10:48:18.475Z,0.00
2023-02-20T10:53:35.881Z,0.00
2023-02-20T10:58:49.050Z,4.00
2023-02-20T11:04:00.938Z,1.50
2023-02-20T11:09:08.055Z,3.50
2023-02-20T11:14:37.767Z,0.00
2023-02-20T11:20:14.814Z,0.00
2023-02-20T11:25:22.882Z,6.00
2023-02-20T11:35:39.632Z,0.00
2023-02-20T11:40:50.252Z,0.00
2023-02-20T11:46:24.877Z,0.00
2023-02-20T11:51:42.424Z,0.00
2023-02-20T11:57:15.124Z,0.00
2023-02-20T12:02:20.480Z,0.00
2023-02-20T12:07:30.510Z,0.00
2023-02-20T12:12:35.809Z,0.00
2023-02-20T12:18:01.212Z,0.00
2023-02-20T12:23:47.436Z,2.67
2023-02-20T12:29:02.340Z,0.00
2023-02-20T12:34:13.656Z,0.00
2023-02-20T12:40:06.103Z,0.00
2023-02-20T12:45:21.881Z,5.50
2023-02-20T12:55:56.648Z,0.00
2023-02-20T13:01:04.927Z,0.00
2023-02-20T13:06:15.907Z,14.25
2023-02-20T13:11:26.140Z,5.00
2023-02-20T13:16:58.955Z,3.00
2023-02-20T13:22:07.138Z,7.33
2023-02-20T13:27:34.126Z,8.67
2023-02-20T13:32:39.601Z,2.00
2023-02-20T13:37:57.627Z,0.00
2023-02-20T13:43:18.350Z,0.00
2023-02-20T13:48:33.196Z,0.00
2023-02-20T13:53:39.542Z,2.00
2023-02-20T13:58:46.697Z,0.00
2023-02-20T14:04:10.510Z,0.00
2023-02-20T14:09:22.788Z,0.00
2023-02-20T14:14:32.628Z,2.00
2023-02-20T14:19:44.663Z,0.00
2023-02-20T14:25:04.777Z,0.00
2023-02-20T14:30:34.064Z,0.00
2023-02-20T14:35:57.903Z,4.00
2023-02-20T14:41:12.025Z,6.00
2023-02-20T14:46:30.467Z,4.00
2023-02-20T14:51:36.685Z,2.50
2023-02-20T14:56:43.761Z,6.00
2023-02-20T15:01:49.176Z,4.00
2023-02-20T15:06:59.408Z,2.00
2023-02-20T15:12:08.087Z,4.00
2023-02-20T15:17:25.278Z,7.00
2023-02-20T15:22:43.840Z,5.50
2023-02-20T15:28:12.310Z,14.00
2023-02-20T15:33:17.793Z,29.75
2023-02-20T15:38:25.437Z,14.50
2023-02-20T15:43:45.107Z,21.50
2023-02-20T15:48:51.200Z,14.25
2023-02-20T15:53:59.338Z,6.50
2023-02-20T15:59:10.022Z,9.00
2023-02-20T16:04:20.446Z,4.00
2023-02-20T16:09:25.800Z,5.50
2023-02-20T16:14:32.481Z,5.00
2023-02-20T16:19:42.690Z,5.33
2023-02-20T16:24:48.657Z,2.00
2023-02-20T16:29:55.480Z,8.67
2023-02-20T16:35:03.099Z,33.25
2023-02-20T16:40:09.412Z,17.25
2023-02-20T16:45:21.698Z,21.50
2023-02-20T16:50:31.380Z,37.75
2023-02-20T16:55:39.063Z,42.33
2023-02-20T17:00:56.673Z,28.00
2023-02-20T17:06:02.434Z,14.75
2023-02-20T17:11:07.648Z,18.00
2023-02-20T17:16:14.799Z,4.00
2023-02-20T17:21:22.061Z,2.00
2023-02-20T17:26:28.988Z,31.67
2023-02-20T17:31:34.979Z,11.50
2023-02-20T17:36:40.087Z,35.00
2023-02-20T17:41:45.134Z,30.00
2023-02-20T17:46:54.058Z,36.67
2023-02-20T17:52:01.515Z,20.00
2023-02-20T17:57:06.831Z,25.00
2023-02-20T18:02:13.381Z,38.75
2023-02-20T18:07:19.936Z,5.33
2023-02-20T18:12:27.048Z,13.75
2023-02-20T18:17:32.831Z,4.00
2023-02-20T18:22:37.916Z,2.67
2023-02-20T18:27:44.339Z,2.00
2023-02-20T18:32:50.885Z,0.00
2023-02-20T18:37:56.174Z,1.50
2023-02-20T18:43:01.247Z,4.00
2023-02-20T18:48:06.093Z,4.50
2023-02-20T18:53:12.407Z,1.50
2023-02-20T18:58:17.477Z,0.00
2023-02-20T19:03:22.740Z,2.00
2023-02-20T19:08:28.245Z,2.00
2023-02-20T19:13:33.442Z,8.00
2023-02-20T19:18:49.686Z,0.00
2023-02-20T19:23:55.643Z,1.50
2023-02-20T19:34:11.536Z,6.00
2023-02-20T19:39:17.322Z,1.33
2023-02-20T19:44:25.414Z,1.00
2023-02-20T19:49:30.129Z,0.00
2023-02-20T19:54:35.310Z,0.00
2023-02-20T19:59:40.970Z,0.00
2023-02-20T20:04:47.369Z,0.00
2023-02-20T20:09:52.701Z,0.00
2023-02-20T20:14:58.419Z,0.00
2023-02-20T20:20:03.750Z,2.00
2023-02-20T20:25:11.104Z,2.00
2023-02-20T20:30:26.204Z,4.00
2023-02-20T20:35:31.943Z,6.00
2023-02-20T20:40:37.845Z,0.00
2023-02-20T20:45:42.564Z,3.50
2023-02-20T20:50:47.731Z,12.50
2023-02-20T20:55:52.943Z,9.50
2023-02-20T21:00:58.041Z,7.50
2023-02-20T21:06:03.139Z,2.00
2023-02-20T21:11:09.198Z,1.33
2023-02-20T21:16:14.420Z,7.50
2023-02-20T21:21:19.726Z,0.50
2023-02-20T21:26:25.310Z,4.00
2023-02-20T21:31:30.466Z,8.67
2023-02-20T21:36:35.967Z,0.00
2023-02-20T21:41:59.472Z,5.50
2023-02-20T21:47:07.335Z,8.00
2023-02-20T21:52:13.348Z,2.00
2023-02-20T21:57:19.794Z,4.00
2023-02-20T22:02:26.429Z,4.00
2023-02-20T22:07:49.590Z,11.33
2023-02-20T22:13:14.053Z,2.67
2023-02-20T22:18:37.405Z,2.50
2023-02-20T22:24:01.505Z,3.50
2023-02-20T22:29:24.983Z,6.50
2023-02-20T22:34:48.323Z,0.00
2023-02-20T22:40:11.359Z,2.00
2023-02-20T22:45:34.528Z,12.50
2023-02-20T22:50:57.618Z,6.00
2023-02-20T22:56:20.810Z,12.00
2023-02-20T23:01:44.205Z,6.67
2023-02-20T23:07:08.532Z,1.50
2023-02-20T23:12:33.129Z,4.00
2023-02-20T23:17:56.501Z,6.00
2023-02-20T23:23:21.110Z,12.00
2023-02-20T23:28:45.223Z,25.50
2023-02-20T23:34:09.487Z,9.50
2023-02-20T23:39:32.846Z,7.00
2023-02-20T23:44:56.214Z,8.00
2023-02-20T23:50:21.766Z,18.00
2023-02-20T23:55:45.306Z,26.00
